createdAt,value
2023-03-25T00:00:39.649Z,98087.03
2023-03-25T00:03:06.858Z,98096.00
2023-03-25T00:05:33.980Z,98083.56
2023-03-25T00:08:01.346Z,98101.31
2023-03-25T00:10:28.424Z,98087.28
2023-03-25T00:12:55.506Z,98078.84
2023-03-25T00:15:22.505Z,98076.81
2023-03-25T00:17:49.619Z,98076.81
2023-03-25T00:20:16.789Z,98062.09
2023-03-25T00:22:44.798Z,98073.13
2023-03-25T00:25:17.935Z,98077.44
2023-03-25T00:27:47.083Z,98066.63
2023-03-25T00:30:15.871Z,98062.28
2023-03-25T00:32:46.291Z,98040.63
2023-03-25T00:35:14.091Z,98039.22
2023-03-25T00:37:41.410Z,98036.13
2023-03-25T00:40:09.194Z,98043.50
2023-03-25T00:42:36.307Z,98016.56
2023-03-25T00:45:04.130Z,98033.69
2023-03-25T00:47:31.631Z,98034.31
2023-03-25T00:49:58.728Z,98038.41
2023-03-25T00:52:25.733Z,98020.22
2023-03-25T00:55:02.934Z,98015.72
2023-03-25T00:57:32.314Z,98026.91
2023-03-25T00:59:59.910Z,98019.97
2023-03-25T01:02:27.858Z,98017.94
2023-03-25T01:04:55.210Z,98010.31
2023-03-25T01:07:22.228Z,98010.13
2023-03-25T01:09:49.343Z,98027.06
2023-03-25T01:12:19.137Z,98015.84
2023-03-25T01:14:47.378Z,98000.69
2023-03-25T01:17:15.103Z,98008.00
2023-03-25T01:19:46.534Z,98017.41
2023-03-25T01:22:14.244Z,97986.38
2023-03-25T01:24:44.989Z,98003.25
2023-03-25T01:27:12.172Z,97997.75
2023-03-25T01:29:39.349Z,98005.66
2023-03-25T01:32:06.524Z,97995.25
2023-03-25T01:34:33.727Z,97993.66
2023-03-25T01:37:01.716Z,97999.34
2023-03-25T01:39:28.856Z,97977.31
2023-03-25T01:41:56.616Z,97976.88
2023-03-25T01:44:24.292Z,97974.59
2023-03-25T01:46:54.272Z,97948.94
2023-03-25T01:49:30.455Z,97976.69
2023-03-25T01:52:04.006Z,97951.72
2023-03-25T01:54:31.367Z,97943.91
2023-03-25T01:56:58.476Z,97952.34
2023-03-25T01:59:28.389Z,97958.44
2023-03-25T02:01:56.916Z,97943.41
2023-03-25T02:04:51.739Z,97952.34
2023-03-25T02:07:20.009Z,97928.44
2023-03-25T02:09:47.082Z,97942.13
2023-03-25T02:12:14.251Z,97957.06
2023-03-25T02:14:41.485Z,97948.69
2023-03-25T02:17:35.466Z,97927.69
2023-03-25T02:20:28.631Z,97934.59
2023-03-25T02:23:05.385Z,97937.75
2023-03-25T02:26:13.360Z,97926.19
2023-03-25T02:29:13.531Z,97921.66
2023-03-25T02:32:08.189Z,97924.63
2023-03-25T02:35:13.842Z,97915.41
2023-03-25T02:38:06.483Z,97901.19
2023-03-25T02:40:49.572Z,97907.69
2023-03-25T02:43:22.925Z,97879.03
2023-03-25T02:45:53.131Z,97903.19
2023-03-25T02:48:59.212Z,97889.28
2023-03-25T02:51:31.185Z,97890.78
2023-03-25T02:54:01.899Z,97885.44
2023-03-25T02:56:33.029Z,97884.78
2023-03-25T02:59:01.468Z,97875.09
2023-03-25T03:01:28.663Z,97876.03
2023-03-25T03:03:56.872Z,97889.34
2023-03-25T03:06:25.812Z,97873.50
2023-03-25T03:09:19.055Z,97866.47
2023-03-25T03:11:55.109Z,97859.16
2023-03-25T03:14:53.109Z,97847.34
2023-03-25T03:17:31.533Z,97835.59
2023-03-25T03:20:06.276Z,97853.03
2023-03-25T03:23:06.215Z,97839.72
2023-03-25T03:25:45.586Z,97836.28
2023-03-25T03:28:27.739Z,97826.22
2023-03-25T03:31:02.518Z,97819.22
2023-03-25T03:33:53.317Z,97823.44
2023-03-25T03:36:22.994Z,97821.94
2023-03-25T03:38:53.651Z,97818.81
2023-03-25T03:41:23.524Z,97808.50
2023-03-25T03:43:54.747Z,97786.47
2023-03-25T03:46:43.655Z,97814.22
2023-03-25T03:49:15.647Z,97789.03
2023-03-25T03:51:49.311Z,97778.34
2023-03-25T03:54:20.156Z,97788.84
2023-03-25T03:57:15.901Z,97783.03
2023-03-25T03:59:54.419Z,97794.75
2023-03-25T04:02:40.753Z,97784.78
2023-03-25T04:05:11.580Z,97761.91
2023-03-25T04:07:56.688Z,97768.75
2023-03-25T04:10:29.347Z,97768.06
2023-03-25T04:13:02.701Z,97764.81
2023-03-25T04:15:29.759Z,97757.00
2023-03-25T04:17:57.639Z,97747.59
2023-03-25T04:20:26.401Z,97763.16
2023-03-25T04:22:53.830Z,97742.97
2023-03-25T04:25:21.860Z,97720.44
2023-03-25T04:27:49.191Z,97717.84
2023-03-25T04:30:18.156Z,97726.34
2023-03-25T04:32:47.205Z,97726.34
2023-03-25T04:35:19.516Z,97743.38
2023-03-25T04:37:49.156Z,97713.56
2023-03-25T04:40:18.993Z,97728.25
2023-03-25T04:42:46.864Z,97728.34
2023-03-25T04:45:17.028Z,97708.13
2023-03-25T04:47:49.092Z,97723.56
2023-03-25T04:50:30.145Z,97722.59
2023-03-25T04:52:58.336Z,97696.47
2023-03-25T04:55:30.057Z,97702.19
2023-03-25T04:58:00.391Z,97690.41
2023-03-25T05:00:27.861Z,97693.56
2023-03-25T05:02:57.597Z,97713.53
2023-03-25T05:05:29.781Z,97707.72
2023-03-25T05:07:59.022Z,97695.38
2023-03-25T05:10:26.638Z,97695.97
2023-03-25T05:13:01.152Z,97683.88
2023-03-25T05:15:30.569Z,97674.66
2023-03-25T05:17:58.412Z,97683.97
2023-03-25T05:20:29.371Z,97680.19
2023-03-25T05:22:59.317Z,97701.66
2023-03-25T05:25:45.709Z,97694.03
2023-03-25T05:28:14.341Z,97719.03
2023-03-25T05:30:45.600Z,97712.47
2023-03-25T05:33:17.538Z,97692.28
2023-03-25T05:35:47.124Z,97708.38
2023-03-25T05:38:23.210Z,97692.13
2023-03-25T05:40:51.781Z,97697.47
2023-03-25T05:43:28.917Z,97687.94
2023-03-25T05:45:56.480Z,97697.06
2023-03-25T05:48:26.674Z,97674.13
2023-03-25T05:50:57.248Z,97683.22
2023-03-25T05:53:24.561Z,97652.81
2023-03-25T05:55:54.034Z,97685.56
2023-03-25T05:58:24.472Z,97665.75
2023-03-25T06:00:52.053Z,97675.00
2023-03-25T06:03:21.168Z,97680.09
2023-03-25T06:05:48.766Z,97673.25
2023-03-25T06:08:26.803Z,97667.38
2023-03-25T06:10:58.778Z,97669.09
2023-03-25T06:13:28.725Z,97683.25
2023-03-25T06:16:00.911Z,97685.16
2023-03-25T06:18:30.437Z,97659.84
2023-03-25T06:20:57.905Z,97670.53
2023-03-25T06:23:26.628Z,97672.94
2023-03-25T06:25:54.528Z,97662.44
2023-03-25T06:28:22.739Z,97652.50
2023-03-25T06:30:50.077Z,97667.75
2023-03-25T06:33:43.379Z,97656.03
2023-03-25T06:36:21.955Z,97659.47
2023-03-25T06:38:50.681Z,97658.34
2023-03-25T06:41:20.922Z,97657.16
2023-03-25T06:43:58.978Z,97656.59
2023-03-25T06:47:09.535Z,97636.13
2023-03-25T06:49:50.141Z,97619.69
2023-03-25T06:52:17.326Z,97647.84
2023-03-25T06:54:44.661Z,97645.78
2023-03-25T06:57:20.276Z,97643.03
2023-03-25T06:59:48.442Z,97628.59
2023-03-25T07:02:17.997Z,97639.38
2023-03-25T07:04:47.122Z,97629.41
2023-03-25T07:07:14.146Z,97624.34
2023-03-25T07:09:41.168Z,97645.34
2023-03-25T07:12:11.112Z,97640.59
2023-03-25T07:14:38.743Z,97635.50
2023-03-25T07:17:06.437Z,97637.94
2023-03-25T07:19:33.450Z,97639.94
2023-03-25T07:22:00.457Z,97634.03
2023-03-25T07:24:27.938Z,97649.44
2023-03-25T07:26:57.078Z,97631.47
2023-03-25T07:29:28.516Z,97604.22
2023-03-25T07:31:58.416Z,97633.06
2023-03-25T07:34:25.932Z,97626.59
2023-03-25T07:36:55.137Z,97642.28
2023-03-25T07:39:25.290Z,97611.81
2023-03-25T07:41:55.281Z,97634.00
2023-03-25T07:44:57.698Z,97648.56
2023-03-25T07:47:25.867Z,97612.50
2023-03-25T07:49:56.556Z,97622.00
2023-03-25T07:52:25.772Z,97629.84
2023-03-25T07:54:53.005Z,97637.38
2023-03-25T07:57:20.492Z,97615.84
2023-03-25T07:59:47.526Z,97646.28
2023-03-25T08:02:14.960Z,97615.56
2023-03-25T08:04:42.339Z,97645.97
2023-03-25T08:07:10.126Z,97635.91
2023-03-25T08:09:37.160Z,97651.56
2023-03-25T08:12:09.199Z,97663.06
2023-03-25T08:14:36.544Z,97653.06
2023-03-25T08:17:06.396Z,97661.59
2023-03-25T08:19:34.173Z,97651.13
2023-03-25T08:22:02.057Z,97661.06
2023-03-25T08:24:37.361Z,97651.59
2023-03-25T08:27:14.705Z,97648.53
2023-03-25T08:29:46.648Z,97646.56
2023-03-25T08:32:13.799Z,97662.69
2023-03-25T08:34:41.278Z,97643.78
2023-03-25T08:37:08.276Z,97652.63
2023-03-25T08:39:40.403Z,97652.94
2023-03-25T08:42:09.043Z,97665.84
2023-03-25T08:44:36.506Z,97663.91
2023-03-25T08:47:03.724Z,97657.97
2023-03-25T08:49:31.108Z,97659.91
2023-03-25T08:51:59.269Z,97672.81
2023-03-25T08:54:27.350Z,97679.13
2023-03-25T08:56:54.424Z,97681.53
2023-03-25T08:59:28.692Z,97674.03
2023-03-25T09:01:57.125Z,97681.03
2023-03-25T09:04:25.574Z,97668.06
2023-03-25T09:07:11.064Z,97669.47
2023-03-25T09:09:40.747Z,97667.75
2023-03-25T09:12:09.308Z,97668.84
2023-03-25T09:14:37.254Z,97672.63
2023-03-25T09:17:07.542Z,97660.50
2023-03-25T09:19:38.224Z,97655.94
2023-03-25T09:22:09.227Z,97646.78
2023-03-25T09:24:44.032Z,97666.94
2023-03-25T09:27:11.795Z,97661.25
2023-03-25T09:29:42.961Z,97654.63
2023-03-25T09:32:10.157Z,97673.59
2023-03-25T09:34:39.548Z,97673.81
2023-03-25T09:37:09.441Z,97689.50
2023-03-25T09:39:38.931Z,97673.38
2023-03-25T09:42:20.526Z,97696.34
2023-03-25T09:45:47.884Z,97691.78
2023-03-25T09:48:46.211Z,97696.69
2023-03-25T09:51:31.085Z,97686.19
2023-03-25T09:54:19.382Z,97681.66
2023-03-25T09:56:47.078Z,97689.31
2023-03-25T09:59:21.444Z,97705.53
2023-03-25T10:02:17.666Z,97695.09
2023-03-25T10:05:05.005Z,97698.09
2023-03-25T10:07:47.072Z,97703.78
2023-03-25T10:10:23.240Z,97702.47
2023-03-25T10:13:08.784Z,97708.38
2023-03-25T10:15:56.704Z,97695.41
2023-03-25T10:18:43.020Z,97708.91
2023-03-25T10:21:42.523Z,97716.72
2023-03-25T10:24:26.045Z,97705.59
2023-03-25T10:26:58.696Z,97702.97
2023-03-25T10:29:31.873Z,97694.84
2023-03-25T10:32:29.293Z,97715.38
2023-03-25T10:34:57.964Z,97705.13
2023-03-25T10:37:36.648Z,97681.44
2023-03-25T10:40:21.772Z,97694.69
2023-03-25T10:43:14.009Z,97715.41
2023-03-25T10:45:43.299Z,97704.16
2023-03-25T10:48:30.057Z,97683.63
2023-03-25T10:51:01.558Z,97708.47
2023-03-25T10:53:31.851Z,97689.88
2023-03-25T10:56:04.412Z,97673.19
2023-03-25T10:58:36.650Z,97677.81
2023-03-25T11:04:43.210Z,97694.75
2023-03-25T11:08:18.176Z,97698.97
2023-03-25T11:11:15.107Z,97722.41
2023-03-25T11:13:48.604Z,97699.72
2023-03-25T11:17:13.379Z,97698.19
2023-03-25T11:19:59.477Z,97704.13
2023-03-25T11:22:32.374Z,97699.78
2023-03-25T11:25:17.488Z,97682.56
2023-03-25T11:28:13.731Z,97671.81
2023-03-25T11:34:31.447Z,97691.50
2023-03-25T11:37:25.765Z,97705.25
2023-03-25T11:40:23.697Z,97679.66
2023-03-25T11:43:12.724Z,97682.91
2023-03-25T11:46:23.118Z,97698.88
2023-03-25T11:48:56.081Z,97701.03
2023-03-25T11:51:31.694Z,97685.94
2023-03-25T11:54:16.161Z,97679.75
2023-03-25T11:56:50.733Z,97682.66
2023-03-25T11:59:38.679Z,97691.84
2023-03-25T12:02:28.298Z,97698.84
2023-03-25T12:05:22.514Z,97699.97
2023-03-25T12:07:51.854Z,97700.97
2023-03-25T12:10:45.483Z,97699.59
2023-03-25T12:13:26.513Z,97724.34
2023-03-25T12:16:00.712Z,97727.28
2023-03-25T12:18:59.575Z,97705.72
2023-03-25T12:22:02.371Z,97732.66
2023-03-25T12:24:36.850Z,97724.88
2023-03-25T12:27:23.980Z,97718.59
2023-03-25T12:30:20.947Z,97718.13
2023-03-25T12:33:05.958Z,97720.56
2023-03-25T12:36:08.618Z,97708.78
2023-03-25T12:39:00.541Z,97722.25
2023-03-25T12:41:46.903Z,97706.09
2023-03-25T12:44:39.217Z,97719.81
2023-03-25T12:47:16.252Z,97700.09
2023-03-25T12:49:56.300Z,97707.16
2023-03-25T12:52:39.226Z,97713.91
2023-03-25T12:55:38.348Z,97702.84
2023-03-25T12:58:26.138Z,97716.06
2023-03-25T13:01:05.706Z,97708.25
2023-03-25T13:03:49.244Z,97703.41
2023-03-25T13:06:30.471Z,97702.06
2023-03-25T13:09:09.932Z,97706.41
2023-03-25T13:11:50.326Z,97702.91
2023-03-25T13:14:37.037Z,97705.06
2023-03-25T13:17:10.420Z,97683.28
2023-03-25T13:19:41.552Z,97686.31
2023-03-25T13:22:44.697Z,97697.66
2023-03-25T13:25:31.993Z,97699.50
2023-03-25T13:28:04.747Z,97687.66
2023-03-25T13:30:37.121Z,97687.94
2023-03-25T13:33:32.828Z,97702.22
2023-03-25T13:36:10.181Z,97725.34
2023-03-25T13:38:42.891Z,97719.16
2023-03-25T13:41:31.203Z,97705.06
2023-03-25T13:44:04.921Z,97716.97
2023-03-25T13:46:47.682Z,97709.09
2023-03-25T13:49:18.557Z,97727.16
2023-03-25T13:51:49.059Z,97716.16
2023-03-25T13:54:32.760Z,97710.53
2023-03-25T13:57:20.721Z,97718.91
2023-03-25T14:00:10.253Z,97715.69
2023-03-25T14:02:53.403Z,97718.09
2023-03-25T14:05:45.788Z,97716.72
2023-03-25T14:08:50.674Z,97705.44
2023-03-25T14:11:24.939Z,97717.00
2023-03-25T14:14:07.655Z,97696.47
2023-03-25T14:16:43.295Z,97696.75
2023-03-25T14:19:17.298Z,97705.59
2023-03-25T14:21:51.406Z,97704.25
2023-03-25T14:24:36.767Z,97724.66
2023-03-25T14:27:18.292Z,97725.53
2023-03-25T14:29:55.336Z,97716.88
2023-03-25T14:32:53.546Z,97730.91
2023-03-25T14:35:43.120Z,97725.03
2023-03-25T14:38:21.597Z,97727.72
2023-03-25T14:41:03.845Z,97709.66
2023-03-25T14:43:39.260Z,97714.53
2023-03-25T14:46:18.941Z,97730.34
2023-03-25T14:52:05.339Z,97726.84
2023-03-25T14:54:34.237Z,97736.25
2023-03-25T14:57:11.653Z,97728.66
2023-03-25T14:59:49.518Z,97744.00
2023-03-25T15:02:34.002Z,97735.41
2023-03-25T15:07:59.568Z,97751.84
2023-03-25T15:10:28.267Z,97750.47
2023-03-25T15:13:05.928Z,97728.34
2023-03-25T15:15:45.046Z,97751.00
2023-03-25T15:18:13.681Z,97754.47
2023-03-25T15:20:41.091Z,97728.25
2023-03-25T15:23:21.033Z,97758.47
2023-03-25T15:25:52.985Z,97754.88
2023-03-25T15:28:40.607Z,97750.03
2023-03-25T15:31:23.871Z,97755.94
2023-03-25T15:34:48.023Z,97767.44
2023-03-25T15:37:43.043Z,97762.34
2023-03-25T15:40:50.767Z,97754.44
2023-03-25T15:43:42.569Z,97763.91
2023-03-25T15:46:41.643Z,97764.66
2023-03-25T15:49:17.518Z,97769.97
2023-03-25T15:52:03.762Z,97772.94
2023-03-25T15:54:56.745Z,97779.38
2023-03-25T15:58:05.204Z,97773.44
2023-03-25T16:00:42.113Z,97768.25
2023-03-25T16:03:15.463Z,97744.47
2023-03-25T16:05:51.374Z,97769.84
2023-03-25T16:08:31.420Z,97762.78
2023-03-25T16:11:26.179Z,97756.59
2023-03-25T16:14:13.653Z,97773.78
2023-03-25T16:17:14.187Z,97770.13
2023-03-25T16:19:50.758Z,97782.81
2023-03-25T16:22:29.178Z,97788.66
2023-03-25T16:24:59.205Z,97783.81
2023-03-25T16:27:48.137Z,97763.53
2023-03-25T16:30:37.870Z,97783.50
2023-03-25T16:33:16.147Z,97788.50
2023-03-25T16:36:01.571Z,97789.25
2023-03-25T16:38:29.889Z,97790.25
2023-03-25T16:41:10.604Z,97798.59
2023-03-25T16:43:38.075Z,97808.81
2023-03-25T16:46:06.841Z,97808.81
2023-03-25T16:48:37.356Z,97793.91
2023-03-25T16:51:11.273Z,97820.84
2023-03-25T16:53:46.603Z,97783.59
2023-03-25T16:56:19.631Z,97813.53
2023-03-25T16:58:59.323Z,97824.78
2023-03-25T17:01:29.793Z,97818.53
2023-03-25T17:04:36.326Z,97825.88
2023-03-25T17:07:09.805Z,97826.69
2023-03-25T17:09:45.000Z,97815.53
2023-03-25T17:12:22.028Z,97804.00
2023-03-25T17:15:07.161Z,97810.25
2023-03-25T17:17:53.851Z,97821.84
2023-03-25T17:20:26.059Z,97826.16
2023-03-25T17:23:20.469Z,97837.00
2023-03-25T17:26:03.040Z,97841.63
2023-03-25T17:28:50.087Z,97830.00
2023-03-25T17:31:38.211Z,97833.19
2023-03-25T17:34:15.961Z,97844.78
2023-03-25T17:36:46.722Z,97833.69
2023-03-25T17:39:24.552Z,97857.72
2023-03-25T17:42:01.239Z,97863.91
2023-03-25T17:44:43.801Z,97851.53
2023-03-25T17:47:15.557Z,97860.13
2023-03-25T17:49:45.975Z,97859.34
2023-03-25T17:52:17.278Z,97872.31
2023-03-25T17:54:46.706Z,97864.19
2023-03-25T17:57:18.809Z,97870.06
2023-03-25T17:59:47.434Z,97858.78
2023-03-25T18:02:16.641Z,97871.44
2023-03-25T18:04:49.457Z,97877.88
2023-03-25T18:07:21.453Z,97884.84
2023-03-25T18:09:56.321Z,97880.56
2023-03-25T18:12:30.288Z,97880.47
2023-03-25T18:14:58.134Z,97862.41
2023-03-25T18:17:26.009Z,97865.88
2023-03-25T18:19:57.435Z,97868.50
2023-03-25T18:22:27.936Z,97885.03
2023-03-25T18:24:59.438Z,97901.69
2023-03-25T18:27:43.286Z,97897.66
2023-03-25T18:30:44.048Z,97894.16
2023-03-25T18:33:13.939Z,97889.28
2023-03-25T18:35:48.454Z,97895.13
2023-03-25T18:38:24.964Z,97888.66
2023-03-25T18:40:56.555Z,97897.00
2023-03-25T18:43:25.937Z,97886.16
2023-03-25T18:45:53.453Z,97883.91
2023-03-25T18:48:22.674Z,97897.16
2023-03-25T18:50:54.063Z,97890.88
2023-03-25T18:53:27.776Z,97899.13
2023-03-25T18:55:56.924Z,97891.75
2023-03-25T18:58:27.213Z,97901.88
2023-03-25T19:00:57.432Z,97896.69
2023-03-25T19:03:35.140Z,97897.13
2023-03-25T19:06:08.430Z,97892.25
2023-03-25T19:08:39.854Z,97906.88
2023-03-25T19:11:20.129Z,97882.03
2023-03-25T19:13:54.349Z,97885.13
2023-03-25T19:16:25.057Z,97905.66
2023-03-25T19:19:01.730Z,97886.66
2023-03-25T19:21:31.334Z,97876.78
2023-03-25T19:24:01.707Z,97883.97
2023-03-25T19:26:30.951Z,97903.22
2023-03-25T19:29:12.821Z,97876.44
2023-03-25T19:31:51.696Z,97879.59
2023-03-25T19:34:22.428Z,97911.75
2023-03-25T19:36:50.500Z,97890.41
2023-03-25T19:39:26.802Z,97891.38
2023-03-25T19:41:57.873Z,97892.75
2023-03-25T19:44:30.435Z,97903.63
2023-03-25T19:47:01.424Z,97890.13
2023-03-25T19:49:39.355Z,97896.31
2023-03-25T19:52:08.097Z,97896.16
2023-03-25T19:54:36.454Z,97903.47
2023-03-25T19:57:03.773Z,97904.50
2023-03-25T19:59:32.407Z,97888.59
2023-03-25T20:02:01.363Z,97917.34
2023-03-25T20:04:28.771Z,97905.56
2023-03-25T20:06:59.842Z,97880.16
2023-03-25T20:09:34.412Z,97887.97
2023-03-25T20:12:02.824Z,97892.00
2023-03-25T20:14:30.129Z,97895.72
2023-03-25T20:16:59.065Z,97907.84
2023-03-25T20:19:33.976Z,97902.97
2023-03-25T20:22:21.990Z,97885.34
2023-03-25T20:24:52.084Z,97911.00
2023-03-25T20:27:19.313Z,97908.41
2023-03-25T20:29:49.511Z,97889.91
2023-03-25T20:32:16.867Z,97888.28
2023-03-25T20:34:46.338Z,97909.88
2023-03-25T20:37:14.066Z,97909.56
2023-03-25T20:39:47.952Z,97922.47
2023-03-25T20:42:19.573Z,97921.09
2023-03-25T20:44:51.559Z,97906.16
2023-03-25T20:47:19.050Z,97915.91
2023-03-25T20:49:49.027Z,97926.22
2023-03-25T20:52:16.718Z,97908.97
2023-03-25T20:54:47.658Z,97923.34
2023-03-25T20:57:17.500Z,97930.34
2023-03-25T20:59:44.862Z,97928.56
2023-03-25T21:02:12.662Z,97903.69
2023-03-25T21:04:40.079Z,97913.38
2023-03-25T21:07:07.143Z,97907.75
2023-03-25T21:09:34.343Z,97926.38
2023-03-25T21:12:01.768Z,97924.19
2023-03-25T21:14:29.060Z,97920.94
2023-03-25T21:19:37.412Z,97913.13
2023-03-25T21:22:04.425Z,97915.50
2023-03-25T21:24:33.915Z,97903.03
2023-03-25T21:27:00.954Z,97916.06
2023-03-25T21:29:29.276Z,97911.16
2023-03-25T21:31:57.028Z,97907.28
2023-03-25T21:34:25.062Z,97906.72
2023-03-25T21:36:52.301Z,97904.53
2023-03-25T21:39:19.619Z,97905.47
2023-03-25T21:41:50.632Z,97914.19
2023-03-25T21:44:17.792Z,97894.78
2023-03-25T21:46:44.974Z,97904.53
2023-03-25T21:49:14.855Z,97905.47
2023-03-25T21:51:50.387Z,97894.69
2023-03-25T21:54:19.210Z,97897.72
2023-03-25T21:56:54.765Z,97920.34
2023-03-25T21:59:22.833Z,97902.72
2023-03-25T22:01:52.812Z,97914.59
2023-03-25T22:04:20.150Z,97913.69
2023-03-25T22:06:47.648Z,97898.56
2023-03-25T22:09:17.587Z,97928.47
2023-03-25T22:11:44.628Z,97936.03
2023-03-25T22:14:14.679Z,97927.66
2023-03-25T22:16:41.940Z,97928.47
2023-03-25T22:19:08.997Z,97915.53
2023-03-25T22:21:37.699Z,97925.31
2023-03-25T22:24:06.589Z,97897.13
2023-03-25T22:26:35.117Z,97916.97
2023-03-25T22:29:04.815Z,97916.28
2023-03-25T22:31:33.712Z,97910.09
2023-03-25T22:34:13.817Z,97909.16
2023-03-25T22:36:43.409Z,97895.31
2023-03-25T22:39:13.609Z,97903.22
2023-03-25T22:41:40.741Z,97891.03
2023-03-25T22:44:10.806Z,97896.78
2023-03-25T22:46:38.924Z,97897.06
2023-03-25T22:49:09.762Z,97904.38
2023-03-25T22:51:39.078Z,97896.41
2023-03-25T22:54:06.471Z,97887.06
2023-03-25T22:56:36.420Z,97894.53
2023-03-25T22:59:05.942Z,97904.50
2023-03-25T23:01:34.076Z,97890.47
2023-03-25T23:04:01.683Z,97897.47
2023-03-25T23:06:33.141Z,97898.50
2023-03-25T23:09:00.281Z,97891.66
2023-03-25T23:11:31.020Z,97886.81
2023-03-25T23:14:06.811Z,97886.69
2023-03-25T23:16:34.630Z,97888.91
2023-03-25T23:19:03.700Z,97869.06
2023-03-25T23:21:31.936Z,97894.72
2023-03-25T23:24:03.087Z,97882.84
2023-03-25T23:26:36.907Z,97855.91
2023-03-25T23:29:06.161Z,97882.84
2023-03-25T23:31:34.959Z,97860.94
2023-03-25T23:34:07.345Z,97883.84
2023-03-25T23:36:37.053Z,97873.94
2023-03-25T23:39:07.843Z,97877.03
2023-03-25T23:41:35.498Z,97872.97
2023-03-25T23:44:03.227Z,97877.19
2023-03-25T23:46:30.617Z,97874.72
2023-03-25T23:49:02.547Z,97876.38
2023-03-25T23:51:34.991Z,97871.88
2023-03-25T23:54:02.542Z,97869.56
2023-03-25T23:56:30.156Z,97863.84
2023-03-25T23:58:58.782Z,97859.34
